createdAt,value
2022-08-28T00:02:03.356Z,21.30
2022-08-28T00:04:31.019Z,21.30
2022-08-28T00:06:58.413Z,21.30
2022-08-28T00:09:25.837Z,21.30
2022-08-28T00:11:53.893Z,21.30
2022-08-28T00:14:22.977Z,21.30
2022-08-28T00:16:51.285Z,21.30
2022-08-28T00:19:20.301Z,21.30
2022-08-28T00:21:48.398Z,21.30
2022-08-28T00:24:16.200Z,21.30
2022-08-28T00:27:02.312Z,21.30
2022-08-28T00:29:30.284Z,21.20
2022-08-28T00:31:57.481Z,21.20
2022-08-28T00:34:29.638Z,21.10
2022-08-28T00:37:00.963Z,21.00
2022-08-28T00:39:28.195Z,21.00
2022-08-28T00:41:57.849Z,20.90
2022-08-28T00:44:28.904Z,20.90
2022-08-28T00:46:59.271Z,20.90
2022-08-28T00:49:31.568Z,20.90
2022-08-28T00:52:12.384Z,20.90
2022-08-28T00:55:00.586Z,20.80
2022-08-28T00:57:45.085Z,20.80
2022-08-28T01:00:25.123Z,20.80
2022-08-28T01:02:53.305Z,20.80
2022-08-28T01:05:21.524Z,20.80
2022-08-28T01:07:50.352Z,20.80
2022-08-28T01:10:22.568Z,20.80
2022-08-28T01:12:51.149Z,20.80
2022-08-28T01:15:24.197Z,20.70
2022-08-28T01:17:57.618Z,20.70
2022-08-28T01:20:32.325Z,20.70
2022-08-28T01:23:53.186Z,20.80
2022-08-28T01:26:21.308Z,20.70
2022-08-28T01:28:49.010Z,20.80
2022-08-28T01:31:18.689Z,20.70
2022-08-28T01:33:47.941Z,20.70
2022-08-28T01:36:17.861Z,20.70
2022-08-28T01:38:50.727Z,20.70
2022-08-28T01:41:17.856Z,20.70
2022-08-28T01:43:45.428Z,20.70
2022-08-28T01:46:12.974Z,20.70
2022-08-28T01:48:45.585Z,20.70
2022-08-28T01:51:14.619Z,20.70
2022-08-28T01:53:45.069Z,20.70
2022-08-28T01:56:17.958Z,20.70
2022-08-28T01:58:48.156Z,20.70
2022-08-28T02:01:20.309Z,20.70
2022-08-28T02:03:48.998Z,20.80
2022-08-28T02:06:17.933Z,20.80
2022-08-28T02:08:46.708Z,20.80
2022-08-28T02:11:14.061Z,20.80
2022-08-28T02:13:41.401Z,20.80
2022-08-28T02:16:10.806Z,20.80
2022-08-28T02:18:38.401Z,20.80
2022-08-28T02:21:07.613Z,20.90
2022-08-28T02:23:36.257Z,20.90
2022-08-28T02:26:03.392Z,20.90
2022-08-28T02:28:31.093Z,20.90
2022-08-28T02:30:58.174Z,21.00
2022-08-28T02:33:25.629Z,21.00
2022-08-28T02:35:53.549Z,21.00
2022-08-28T02:38:20.927Z,21.00
2022-08-28T02:40:48.077Z,21.00
2022-08-28T02:43:15.148Z,21.00
2022-08-28T02:45:42.150Z,21.00
2022-08-28T02:48:16.662Z,21.00
2022-08-28T02:50:46.117Z,21.00
2022-08-28T02:53:13.852Z,21.00
2022-08-28T02:55:40.965Z,21.00
2022-08-28T02:58:09.686Z,21.00
2022-08-28T03:00:36.909Z,20.90
2022-08-28T03:03:04.595Z,20.90
2022-08-28T03:05:32.085Z,20.90
2022-08-28T03:07:59.265Z,20.80
2022-08-28T03:10:26.419Z,20.80
2022-08-28T03:12:53.516Z,20.80
2022-08-28T03:15:21.162Z,20.80
2022-08-28T03:17:48.781Z,20.80
2022-08-28T03:20:18.057Z,20.80
2022-08-28T03:23:03.855Z,20.80
2022-08-28T03:25:30.976Z,20.80
2022-08-28T03:27:58.003Z,20.80
2022-08-28T03:30:25.285Z,20.80
2022-08-28T03:32:52.402Z,20.80
2022-08-28T03:35:20.376Z,20.80
2022-08-28T03:37:47.829Z,20.80
2022-08-28T03:40:15.269Z,20.80
2022-08-28T03:42:43.278Z,20.80
2022-08-28T03:45:20.589Z,20.80
2022-08-28T03:47:47.597Z,20.80
2022-08-28T03:50:16.805Z,20.70
2022-08-28T03:52:44.079Z,20.80
2022-08-28T03:55:12.980Z,20.80
2022-08-28T03:57:40.341Z,20.80
2022-08-28T04:00:11.623Z,20.80
2022-08-28T04:02:43.573Z,20.80
2022-08-28T04:05:11.592Z,20.80
2022-08-28T04:07:40.447Z,20.80
2022-08-28T04:10:08.774Z,20.80
2022-08-28T04:12:37.136Z,20.80
2022-08-28T04:15:07.060Z,20.80
2022-08-28T04:17:35.032Z,20.90
2022-08-28T04:20:02.197Z,20.90
2022-08-28T04:22:30.643Z,20.90
2022-08-28T04:24:57.712Z,20.90
2022-08-28T04:27:24.813Z,20.90
2022-08-28T04:29:52.125Z,21.00
2022-08-28T04:32:19.165Z,21.00
2022-08-28T04:34:46.365Z,21.00
2022-08-28T04:37:13.412Z,21.00
2022-08-28T04:39:40.800Z,21.00
2022-08-28T04:42:08.013Z,21.10
2022-08-28T04:44:36.153Z,21.10
2022-08-28T04:47:03.361Z,21.10
2022-08-28T04:49:33.621Z,21.10
2022-08-28T04:52:00.734Z,21.10
2022-08-28T04:54:28.065Z,21.20
2022-08-28T04:56:55.257Z,21.20
2022-08-28T04:59:22.599Z,21.20
2022-08-28T05:01:49.640Z,21.20
2022-08-28T05:04:17.608Z,21.20
2022-08-28T05:06:46.333Z,21.20
2022-08-28T05:09:17.585Z,21.30
2022-08-28T05:11:46.437Z,21.30
2022-08-28T05:14:16.277Z,21.30
2022-08-28T05:16:48.821Z,21.30
2022-08-28T05:19:18.614Z,21.40
2022-08-28T05:21:46.243Z,21.40
2022-08-28T05:24:14.052Z,21.40
2022-08-28T05:26:41.667Z,21.50
2022-08-28T05:29:10.138Z,21.50
2022-08-28T05:31:41.541Z,21.50
2022-08-28T05:34:10.567Z,21.50
2022-08-28T05:36:39.313Z,21.60
2022-08-28T05:39:10.988Z,21.60
2022-08-28T05:41:42.165Z,21.70
2022-08-28T05:44:12.992Z,21.70
2022-08-28T05:46:44.214Z,21.70
2022-08-28T05:49:13.368Z,21.70
2022-08-28T05:51:42.654Z,21.80
2022-08-28T05:54:11.317Z,21.80
2022-08-28T05:56:41.361Z,21.80
2022-08-28T05:59:11.618Z,21.90
2022-08-28T06:01:43.498Z,21.90
2022-08-28T06:04:15.277Z,22.00
2022-08-28T06:06:42.688Z,22.00
2022-08-28T06:09:17.374Z,22.10
2022-08-28T06:11:46.287Z,22.10
2022-08-28T06:14:18.079Z,22.20
2022-08-28T06:16:53.771Z,22.20
2022-08-28T06:19:25.111Z,22.30
2022-08-28T06:21:57.382Z,22.30
2022-08-28T06:24:26.102Z,22.40
2022-08-28T06:26:53.128Z,22.40
2022-08-28T06:29:25.472Z,22.40
2022-08-28T06:32:00.928Z,22.50
2022-08-28T06:34:29.223Z,22.50
2022-08-28T06:36:56.290Z,22.50
2022-08-28T06:39:24.187Z,22.50
2022-08-28T06:41:51.373Z,22.50
2022-08-28T06:44:23.316Z,22.60
2022-08-28T06:46:53.685Z,22.70
2022-08-28T06:49:21.688Z,22.70
2022-08-28T06:51:49.557Z,22.70
2022-08-28T06:54:22.391Z,22.70
2022-08-28T06:56:54.121Z,22.70
2022-08-28T06:59:21.183Z,22.70
2022-08-28T07:01:48.566Z,22.70
2022-08-28T07:04:15.937Z,22.70
2022-08-28T07:06:53.777Z,22.70
2022-08-28T07:09:21.712Z,22.70
2022-08-28T07:11:49.499Z,22.70
2022-08-28T07:14:16.717Z,22.70
2022-08-28T07:16:44.451Z,22.70
2022-08-28T07:19:13.609Z,22.70
2022-08-28T07:21:44.685Z,22.70
2022-08-28T07:24:14.636Z,22.70
2022-08-28T07:26:43.889Z,22.70
2022-08-28T07:29:11.825Z,22.70
2022-08-28T07:31:46.448Z,22.70
2022-08-28T07:34:14.530Z,22.60
2022-08-28T07:36:42.391Z,22.60
2022-08-28T07:39:11.539Z,22.50
2022-08-28T07:41:42.628Z,22.50
2022-08-28T07:44:32.466Z,22.50
2022-08-28T07:47:04.311Z,22.50
2022-08-28T07:49:33.912Z,22.50
2022-08-28T07:52:01.843Z,22.50
2022-08-28T07:54:28.941Z,22.50
2022-08-28T07:56:56.004Z,22.50
2022-08-28T07:59:23.307Z,22.50
2022-08-28T08:01:51.880Z,22.50
2022-08-28T08:04:21.709Z,22.50
2022-08-28T08:06:51.375Z,22.60
2022-08-28T08:09:22.332Z,22.60
2022-08-28T08:11:49.622Z,22.50
2022-08-28T08:14:17.340Z,22.60
2022-08-28T08:16:46.937Z,22.60
2022-08-28T08:19:16.211Z,22.70
2022-08-28T08:21:48.417Z,22.70
2022-08-28T08:24:21.191Z,22.70
2022-08-28T08:26:59.274Z,22.80
2022-08-28T08:29:32.465Z,22.80
2022-08-28T08:32:06.057Z,22.80
2022-08-28T08:34:38.543Z,22.90
2022-08-28T08:37:05.991Z,22.90
2022-08-28T08:39:35.966Z,23.00
2022-08-28T08:42:08.235Z,23.00
2022-08-28T08:44:46.876Z,23.00
2022-08-28T08:47:23.438Z,23.10
2022-08-28T08:49:58.991Z,23.20
2022-08-28T08:52:56.728Z,23.20
2022-08-28T08:55:31.383Z,23.20
2022-08-28T08:58:26.023Z,23.20
2022-08-28T09:01:20.441Z,23.30
2022-08-28T09:03:59.489Z,23.30
2022-08-28T09:06:51.210Z,23.30
2022-08-28T09:09:51.661Z,23.30
2022-08-28T09:12:26.592Z,23.30
2022-08-28T09:14:58.082Z,23.30
2022-08-28T09:17:37.444Z,23.30
2022-08-28T09:20:11.818Z,23.30
2022-08-28T09:22:45.281Z,23.30
2022-08-28T09:25:50.865Z,23.20
2022-08-28T09:28:39.159Z,23.20
2022-08-28T09:31:31.947Z,23.20
2022-08-28T09:34:19.196Z,23.20
2022-08-28T09:36:46.588Z,23.20
2022-08-28T09:39:33.965Z,23.20
2022-08-28T09:42:41.815Z,23.20
2022-08-28T09:45:18.608Z,23.20
2022-08-28T09:48:00.722Z,23.30
2022-08-28T09:50:44.506Z,23.30
2022-08-28T09:53:14.077Z,23.40
2022-08-28T09:56:03.606Z,23.50
2022-08-28T09:58:38.703Z,23.60
2022-08-28T10:01:38.474Z,23.80
2022-08-28T10:04:15.939Z,23.90
2022-08-28T10:07:09.963Z,24.10
2022-08-28T10:10:29.112Z,24.40
2022-08-28T10:13:08.239Z,24.50
2022-08-28T10:15:59.030Z,24.70
2022-08-28T10:19:11.858Z,24.90
2022-08-28T10:21:51.578Z,25.00
2022-08-28T10:24:46.616Z,25.20
2022-08-28T10:27:33.542Z,25.40
2022-08-28T10:30:14.009Z,25.60
2022-08-28T10:33:37.882Z,25.70
2022-08-28T10:36:33.251Z,25.90
2022-08-28T10:39:20.105Z,26.10
2022-08-28T10:41:59.093Z,26.20
2022-08-28T10:44:58.909Z,26.30
2022-08-28T10:47:29.546Z,26.40
2022-08-28T10:50:03.230Z,26.40
2022-08-28T10:52:41.759Z,26.30
2022-08-28T10:55:19.270Z,26.30
2022-08-28T10:58:04.144Z,26.30
2022-08-28T11:00:32.630Z,26.20
2022-08-28T11:03:32.989Z,26.20
2022-08-28T11:06:38.943Z,26.20
2022-08-28T11:09:26.711Z,26.20
2022-08-28T11:12:03.902Z,26.30
2022-08-28T11:14:47.767Z,26.50
2022-08-28T11:17:30.673Z,26.70
2022-08-28T11:20:25.131Z,26.90
2022-08-28T11:22:56.049Z,27.10
2022-08-28T11:25:57.525Z,27.20
2022-08-28T11:28:24.998Z,27.40
2022-08-28T11:31:06.690Z,27.60
2022-08-28T11:33:43.676Z,27.70
2022-08-28T11:36:22.041Z,27.80
2022-08-28T11:38:52.181Z,27.90
2022-08-28T11:41:28.725Z,28.00
2022-08-28T11:44:13.605Z,28.10
2022-08-28T11:46:47.532Z,28.20
2022-08-28T11:49:29.328Z,28.30
2022-08-28T11:52:14.384Z,28.40
2022-08-28T11:55:14.029Z,28.50
2022-08-28T12:01:02.815Z,28.80
2022-08-28T12:03:54.146Z,28.90
2022-08-28T12:07:05.802Z,29.00
2022-08-28T12:09:50.920Z,29.20
2022-08-28T12:12:21.472Z,29.20
2022-08-28T12:14:48.373Z,29.20
2022-08-28T12:17:22.626Z,29.20
2022-08-28T12:19:56.681Z,29.00
2022-08-28T12:22:42.286Z,28.90
2022-08-28T12:25:38.282Z,28.70
2022-08-28T12:28:31.647Z,28.50
2022-08-28T12:31:48.807Z,28.30
2022-08-28T12:34:58.051Z,28.30
2022-08-28T12:37:39.456Z,28.20
2022-08-28T12:40:20.933Z,28.20
2022-08-28T12:43:02.012Z,28.10
2022-08-28T12:45:54.980Z,28.10
2022-08-28T12:48:34.056Z,28.00
2022-08-28T12:51:08.568Z,28.00
2022-08-28T12:53:47.282Z,27.90
2022-08-28T12:56:18.189Z,27.80
2022-08-28T12:58:47.380Z,27.70
2022-08-28T13:01:33.239Z,27.50
2022-08-28T13:04:38.300Z,27.40
2022-08-28T13:07:20.740Z,27.20
2022-08-28T13:09:54.184Z,26.90
2022-08-28T13:12:54.765Z,26.60
2022-08-28T13:16:01.766Z,26.40
2022-08-28T13:19:03.916Z,26.20
2022-08-28T13:21:38.218Z,26.00
2022-08-28T13:24:27.419Z,25.90
2022-08-28T13:27:08.783Z,25.70
2022-08-28T13:29:37.322Z,25.60
2022-08-28T13:32:18.925Z,25.50
2022-08-28T13:35:17.559Z,25.40
2022-08-28T13:37:55.805Z,25.30
2022-08-28T13:40:56.372Z,25.20
2022-08-28T13:43:17.720Z,25.00
2022-08-28T13:45:48.626Z,24.90
2022-08-28T13:48:25.678Z,24.80
2022-08-28T13:51:03.143Z,24.70
2022-08-28T13:53:32.341Z,24.70
2022-08-28T13:56:00.705Z,24.70
2022-08-28T13:58:28.357Z,24.70
2022-08-28T14:00:55.749Z,24.70
2022-08-28T14:03:35.831Z,24.70
2022-08-28T14:06:14.681Z,24.80
2022-08-28T14:08:44.313Z,24.90
2022-08-28T14:11:13.825Z,24.90
2022-08-28T14:13:47.089Z,25.00
2022-08-28T14:16:26.726Z,25.10
2022-08-28T14:18:54.385Z,25.10
2022-08-28T14:21:24.697Z,25.10
2022-08-28T14:23:51.908Z,25.20
2022-08-28T14:26:18.945Z,25.20
2022-08-28T14:28:46.187Z,25.20
2022-08-28T14:31:14.988Z,25.30
2022-08-28T14:33:45.257Z,25.30
2022-08-28T14:36:23.333Z,25.30
2022-08-28T14:38:54.221Z,25.40
2022-08-28T14:41:23.071Z,25.40
2022-08-28T14:43:50.107Z,25.40
2022-08-28T14:46:23.545Z,25.30
2022-08-28T14:48:51.889Z,25.30
2022-08-28T14:51:19.378Z,25.30
2022-08-28T14:53:46.917Z,25.20
2022-08-28T14:56:16.067Z,25.20
2022-08-28T14:58:43.221Z,25.20
2022-08-28T15:01:10.284Z,25.30
2022-08-28T15:03:37.528Z,25.30
2022-08-28T15:06:09.387Z,25.40
2022-08-28T15:08:37.403Z,25.40
2022-08-28T15:11:17.975Z,25.40
2022-08-28T15:13:48.334Z,25.50
2022-08-28T15:16:31.022Z,25.50
2022-08-28T15:18:59.727Z,25.50
2022-08-28T15:21:34.178Z,25.50
2022-08-28T15:24:03.780Z,25.40
2022-08-28T15:26:31.361Z,25.40
2022-08-28T15:29:02.367Z,25.30
2022-08-28T15:31:38.002Z,25.20
2022-08-28T15:34:14.595Z,25.10
2022-08-28T15:36:44.058Z,25.00
2022-08-28T15:39:30.682Z,24.90
2022-08-28T15:41:59.304Z,24.80
2022-08-28T15:44:26.804Z,24.60
2022-08-28T15:47:01.590Z,24.60
2022-08-28T15:49:32.280Z,24.50
2022-08-28T15:52:04.006Z,24.40
2022-08-28T15:54:31.996Z,24.30
2022-08-28T15:56:59.340Z,24.30
2022-08-28T15:59:40.026Z,24.30
2022-08-28T16:02:14.473Z,24.20
2022-08-28T16:04:41.690Z,24.10
2022-08-28T16:07:08.773Z,24.10
2022-08-28T16:09:36.083Z,24.10
2022-08-28T16:12:03.773Z,24.00
2022-08-28T16:14:32.978Z,23.90
2022-08-28T16:17:05.771Z,23.90
2022-08-28T16:19:42.420Z,23.90
2022-08-28T16:22:12.027Z,23.80
2022-08-28T16:24:39.652Z,23.80
2022-08-28T16:27:08.667Z,23.70
2022-08-28T16:29:39.481Z,23.60
2022-08-28T16:32:06.519Z,23.60
2022-08-28T16:34:35.050Z,23.60
2022-08-28T16:37:04.397Z,23.50
2022-08-28T16:39:31.898Z,23.50
2022-08-28T16:41:59.833Z,23.40
2022-08-28T16:44:27.351Z,23.30
2022-08-28T16:46:55.734Z,23.20
2022-08-28T16:49:24.156Z,23.10
2022-08-28T16:51:51.808Z,23.10
2022-08-28T16:54:19.328Z,23.00
2022-08-28T16:56:47.038Z,22.90
2022-08-28T16:59:23.353Z,22.90
2022-08-28T17:01:53.902Z,22.80
2022-08-28T17:04:22.492Z,22.70
2022-08-28T17:06:50.203Z,22.70
2022-08-28T17:09:20.957Z,22.60
2022-08-28T17:11:52.376Z,22.60
2022-08-28T17:14:21.911Z,22.60
2022-08-28T17:16:50.189Z,22.50
2022-08-28T17:19:18.702Z,22.50
2022-08-28T17:22:04.071Z,22.50
2022-08-28T17:24:31.115Z,22.40
2022-08-28T17:27:02.016Z,22.40
2022-08-28T17:29:31.785Z,22.40
2022-08-28T17:31:59.513Z,22.30
2022-08-28T17:34:30.252Z,22.30
2022-08-28T17:36:57.867Z,22.30
2022-08-28T17:39:25.588Z,22.30
2022-08-28T17:41:52.719Z,22.30
2022-08-28T17:44:19.773Z,22.20
2022-08-28T17:46:47.358Z,22.20
2022-08-28T17:49:14.603Z,22.20
2022-08-28T17:51:44.068Z,22.20
2022-08-28T17:54:13.710Z,22.20
2022-08-28T17:56:42.158Z,22.20
2022-08-28T17:59:11.021Z,22.20
2022-08-28T18:01:38.907Z,22.10
2022-08-28T18:04:06.270Z,22.10
2022-08-28T18:06:34.714Z,22.10
2022-08-28T18:09:01.799Z,22.10
2022-08-28T18:11:29.732Z,22.00
2022-08-28T18:13:57.132Z,22.00
2022-08-28T18:16:28.903Z,22.00
2022-08-28T18:18:59.179Z,22.00
2022-08-28T18:21:26.492Z,21.90
2022-08-28T18:23:53.689Z,21.90
2022-08-28T18:26:21.435Z,21.80
2022-08-28T18:28:50.935Z,21.80
2022-08-28T18:31:18.629Z,21.70
2022-08-28T18:33:45.848Z,21.70
2022-08-28T18:36:14.991Z,21.60
2022-08-28T18:38:44.243Z,21.60
2022-08-28T18:41:12.182Z,21.50
2022-08-28T18:43:39.787Z,21.50
2022-08-28T18:46:09.456Z,21.40
2022-08-28T18:48:38.135Z,21.40
2022-08-28T18:51:13.206Z,21.30
2022-08-28T18:53:43.329Z,21.30
2022-08-28T18:56:12.342Z,21.30
2022-08-28T18:58:41.792Z,21.20
2022-08-28T19:01:10.155Z,21.20
2022-08-28T19:03:37.937Z,21.20
2022-08-28T19:06:06.339Z,21.20
2022-08-28T19:08:36.785Z,21.10
2022-08-28T19:11:08.840Z,21.10
2022-08-28T19:13:37.126Z,21.10
2022-08-28T19:16:05.815Z,21.10
2022-08-28T19:18:35.897Z,21.10
2022-08-28T19:21:15.864Z,21.10
2022-08-28T19:23:44.535Z,21.10
2022-08-28T19:26:27.242Z,21.10
2022-08-28T19:28:55.136Z,21.00
2022-08-28T19:31:23.600Z,21.00
2022-08-28T19:33:52.091Z,21.00
2022-08-28T19:36:19.541Z,21.00
2022-08-28T19:38:47.166Z,21.00
2022-08-28T19:41:15.033Z,21.00
2022-08-28T19:43:44.419Z,21.00
2022-08-28T19:46:20.177Z,20.90
2022-08-28T19:48:53.068Z,20.90
2022-08-28T19:51:23.993Z,20.90
2022-08-28T19:53:58.910Z,20.90
2022-08-28T19:56:29.071Z,20.90
2022-08-28T19:58:59.043Z,20.90
2022-08-28T20:01:29.957Z,20.80
2022-08-28T20:03:58.738Z,20.80
2022-08-28T20:06:26.621Z,20.80
2022-08-28T20:08:54.027Z,20.80
2022-08-28T20:11:30.498Z,20.70
2022-08-28T20:14:04.732Z,20.70
2022-08-28T20:16:41.548Z,20.70
2022-08-28T20:19:10.522Z,20.70
2022-08-28T20:21:42.554Z,20.70
2022-08-28T20:24:13.696Z,20.70
2022-08-28T20:26:41.405Z,20.70
2022-08-28T20:29:10.046Z,20.60
2022-08-28T20:31:44.823Z,20.60
2022-08-28T20:34:12.909Z,20.60
2022-08-28T20:36:40.353Z,20.50
2022-08-28T20:39:09.350Z,20.50
2022-08-28T20:41:39.779Z,20.50
2022-08-28T20:44:09.265Z,20.40
2022-08-28T20:46:41.385Z,20.40
2022-08-28T20:49:13.853Z,20.30
2022-08-28T20:52:00.931Z,20.30
2022-08-28T20:54:39.413Z,20.20
2022-08-28T20:57:10.715Z,20.20
2022-08-28T20:59:41.740Z,20.20
2022-08-28T21:02:17.362Z,20.20
2022-08-28T21:04:46.738Z,20.20
2022-08-28T21:07:16.545Z,20.20
2022-08-28T21:10:04.072Z,20.20
2022-08-28T21:12:31.596Z,20.20
2022-08-28T21:14:59.447Z,20.20
2022-08-28T21:17:26.734Z,20.20
2022-08-28T21:20:02.852Z,20.20
2022-08-28T21:22:31.742Z,20.20
2022-08-28T21:24:59.887Z,20.20
2022-08-28T21:27:27.451Z,20.20
2022-08-28T21:29:59.472Z,20.20
2022-08-28T21:32:27.787Z,20.20
2022-08-28T21:34:55.287Z,20.20
2022-08-28T21:37:22.773Z,20.20
2022-08-28T21:39:49.910Z,20.20
2022-08-28T21:42:17.225Z,20.20
2022-08-28T21:44:51.504Z,20.20
2022-08-28T21:47:22.947Z,20.20
2022-08-28T21:49:52.811Z,20.20
2022-08-28T21:52:22.916Z,20.20
2022-08-28T21:54:50.178Z,20.20
2022-08-28T21:57:17.764Z,20.20
2022-08-28T21:59:44.770Z,20.20
2022-08-28T22:02:11.906Z,20.20
2022-08-28T22:04:39.489Z,20.20
2022-08-28T22:07:07.020Z,20.20
2022-08-28T22:09:34.007Z,20.20
2022-08-28T22:12:01.732Z,20.20
2022-08-28T22:14:29.162Z,20.20
2022-08-28T22:16:56.752Z,20.20
2022-08-28T22:19:24.259Z,20.20
2022-08-28T22:22:09.625Z,20.20
2022-08-28T22:24:37.569Z,20.20
2022-08-28T22:27:05.808Z,20.20
2022-08-28T22:29:36.478Z,20.20
2022-08-28T22:32:05.293Z,20.20
2022-08-28T22:34:38.822Z,20.20
2022-08-28T22:37:06.618Z,20.20
2022-08-28T22:39:34.325Z,20.20
2022-08-28T22:42:02.022Z,20.20
2022-08-28T22:44:29.530Z,20.20
2022-08-28T22:46:56.748Z,20.20
2022-08-28T22:49:23.936Z,20.20
2022-08-28T22:51:51.215Z,20.20
2022-08-28T22:54:18.352Z,20.20
2022-08-28T22:56:45.369Z,20.20
2022-08-28T22:59:12.632Z,20.10
2022-08-28T23:01:42.464Z,20.10
2022-08-28T23:04:11.203Z,20.10
2022-08-28T23:06:40.205Z,20.10
2022-08-28T23:09:08.927Z,20.00
2022-08-28T23:11:37.852Z,20.00
2022-08-28T23:14:06.341Z,20.00
2022-08-28T23:16:35.363Z,20.00
2022-08-28T23:19:10.356Z,20.00
2022-08-28T23:21:43.758Z,20.00
2022-08-28T23:24:16.505Z,20.00
2022-08-28T23:26:44.992Z,19.90
2022-08-28T23:29:13.325Z,19.90
2022-08-28T23:31:41.069Z,19.90
2022-08-28T23:34:08.707Z,19.80
2022-08-28T23:36:36.517Z,19.80
2022-08-28T23:39:04.960Z,19.80
2022-08-28T23:41:33.212Z,19.80
2022-08-28T23:44:03.201Z,19.70
2022-08-28T23:46:32.499Z,19.70
2022-08-28T23:49:00.222Z,19.70
2022-08-28T23:51:27.366Z,19.70
2022-08-28T23:53:55.149Z,19.60
2022-08-28T23:56:22.321Z,19.60
2022-08-28T23:58:55.535Z,19.60
